createdAt,value
2023-02-02T00:01:53.895Z,101615.53
2023-02-02T00:04:33.524Z,101612.06
2023-02-02T00:07:02.826Z,101611.16
2023-02-02T00:09:32.059Z,101605.97
2023-02-02T00:12:01.269Z,101611.16
2023-02-02T00:14:28.525Z,101614.03
2023-02-02T00:16:58.017Z,101613.19
2023-02-02T00:19:33.510Z,101607.91
2023-02-02T00:22:00.425Z,101607.19
2023-02-02T00:24:27.507Z,101608.84
2023-02-02T00:26:59.800Z,101602.81
2023-02-02T00:29:30.031Z,101600.19
2023-02-02T00:31:57.322Z,101609.09
2023-02-02T00:34:24.657Z,101612.75
2023-02-02T00:36:52.059Z,101607.44
2023-02-02T00:39:23.149Z,101613.78
2023-02-02T00:41:50.136Z,101613.00
2023-02-02T00:44:35.586Z,101617.47
2023-02-02T00:47:03.859Z,101616.59
2023-02-02T00:49:31.041Z,101623.72
2023-02-02T00:51:58.219Z,101625.50
2023-02-02T00:54:25.374Z,101627.28
2023-02-02T00:56:56.400Z,101628.13
2023-02-02T00:59:23.798Z,101629.03
2023-02-02T01:01:51.449Z,101631.69
2023-02-02T01:04:18.541Z,101637.03
2023-02-02T01:06:47.874Z,101630.00
2023-02-02T01:09:14.933Z,101632.66
2023-02-02T01:11:42.287Z,101633.56
2023-02-02T01:14:09.292Z,101632.69
2023-02-02T01:16:36.410Z,101638.00
2023-02-02T01:19:03.999Z,101638.00
2023-02-02T01:21:31.029Z,101633.59
2023-02-02T01:23:58.117Z,101644.34
2023-02-02T01:26:25.133Z,101638.13
2023-02-02T01:28:52.143Z,101642.50
2023-02-02T01:31:21.328Z,101638.16
2023-02-02T01:33:50.153Z,101642.59
2023-02-02T01:36:21.558Z,101638.25
2023-02-02T01:38:49.761Z,101640.81
2023-02-02T01:41:22.120Z,101644.34
2023-02-02T01:44:45.665Z,101640.78
2023-02-02T01:47:13.375Z,101632.91
2023-02-02T01:49:41.412Z,101634.69
2023-02-02T01:52:10.660Z,101624.03
2023-02-02T01:54:58.399Z,101615.22
2023-02-02T01:57:36.352Z,101614.34
2023-02-02T02:00:09.028Z,101608.16
2023-02-02T02:02:45.948Z,101609.91
2023-02-02T02:05:19.852Z,101607.25
2023-02-02T02:07:50.477Z,101596.63
2023-02-02T02:10:18.775Z,101598.41
2023-02-02T02:12:48.643Z,101600.97
2023-02-02T02:15:34.561Z,101596.63
2023-02-02T02:18:35.275Z,101602.72
2023-02-02T02:22:15.831Z,101606.22
2023-02-02T02:25:51.852Z,101603.66
2023-02-02T02:29:03.122Z,101604.44
2023-02-02T02:31:56.035Z,101615.09
2023-02-02T02:34:44.749Z,101615.91
2023-02-02T02:37:38.891Z,101615.06
2023-02-02T02:40:34.626Z,101613.25
2023-02-02T02:43:15.597Z,101607.09
2023-02-02T02:45:44.809Z,101625.66
2023-02-02T02:48:13.642Z,101622.94
2023-02-02T02:50:40.768Z,101621.19
2023-02-02T02:53:16.547Z,101623.06
2023-02-02T02:56:25.102Z,101624.03
2023-02-02T02:59:05.307Z,101622.28
2023-02-02T03:02:08.746Z,101624.88
2023-02-02T03:05:08.992Z,101631.97
2023-02-02T03:07:42.935Z,101634.63
2023-02-02T03:10:13.787Z,101633.63
2023-02-02T03:12:49.350Z,101636.34
2023-02-02T03:15:17.977Z,101641.72
2023-02-02T03:17:52.503Z,101637.34
2023-02-02T03:20:22.853Z,101640.88
2023-02-02T03:22:51.302Z,101649.00
2023-02-02T03:25:18.809Z,101645.56
2023-02-02T03:27:45.831Z,101651.81
2023-02-02T03:30:14.167Z,101660.84
2023-02-02T03:32:41.730Z,101651.19
2023-02-02T03:35:11.172Z,101658.50
2023-02-02T03:37:38.513Z,101655.91
2023-02-02T03:40:07.108Z,101650.69
2023-02-02T03:42:34.139Z,101659.66
2023-02-02T03:45:01.152Z,101671.13
2023-02-02T03:47:29.929Z,101675.69
2023-02-02T03:49:57.510Z,101678.44
2023-02-02T03:52:26.683Z,101673.31
2023-02-02T03:54:53.911Z,101665.47
2023-02-02T03:57:20.814Z,101677.97
2023-02-02T03:59:47.781Z,101663.94
2023-02-02T04:02:14.818Z,101663.16
2023-02-02T04:04:41.736Z,101657.06
2023-02-02T04:07:08.644Z,101665.88
2023-02-02T04:09:35.632Z,101672.94
2023-02-02T04:12:02.590Z,101672.94
2023-02-02T04:14:29.445Z,101674.53
2023-02-02T04:16:56.329Z,101677.38
2023-02-02T04:19:25.997Z,101677.25
2023-02-02T04:21:53.597Z,101673.78
2023-02-02T04:24:20.528Z,101674.63
2023-02-02T04:26:47.728Z,101668.56
2023-02-02T04:29:14.940Z,101672.03
2023-02-02T04:31:42.543Z,101658.78
2023-02-02T04:34:09.552Z,101660.50
2023-02-02T04:36:36.410Z,101659.69
2023-02-02T04:39:03.929Z,101665.09
2023-02-02T04:41:32.312Z,101674.94
2023-02-02T04:43:59.192Z,101671.44
2023-02-02T04:46:26.609Z,101667.94
2023-02-02T04:48:53.548Z,101668.88
2023-02-02T04:51:20.421Z,101667.19
2023-02-02T04:53:47.372Z,101669.06
2023-02-02T04:56:18.917Z,101679.78
2023-02-02T04:58:46.402Z,101678.13
2023-02-02T05:01:20.196Z,101687.91
2023-02-02T05:03:48.527Z,101687.13
2023-02-02T05:06:16.401Z,101692.56
2023-02-02T05:08:44.120Z,101696.25
2023-02-02T05:11:18.510Z,101708.63
2023-02-02T05:13:50.052Z,101699.06
2023-02-02T05:16:17.910Z,101712.31
2023-02-02T05:18:59.469Z,101710.59
2023-02-02T05:21:26.942Z,101724.72
2023-02-02T05:23:53.911Z,101721.22
2023-02-02T05:26:26.823Z,101716.00
2023-02-02T05:28:54.171Z,101717.78
2023-02-02T05:31:21.245Z,101725.03
2023-02-02T05:33:48.329Z,101727.72
2023-02-02T05:36:15.299Z,101721.56
2023-02-02T05:38:42.263Z,101726.91
2023-02-02T05:41:09.268Z,101731.41
2023-02-02T05:43:36.211Z,101731.41
2023-02-02T05:46:04.061Z,101735.00
2023-02-02T05:48:31.101Z,101742.09
2023-02-02T05:51:11.374Z,101738.59
2023-02-02T05:53:38.384Z,101749.25
2023-02-02T05:56:05.847Z,101757.31
2023-02-02T05:58:32.943Z,101758.25
2023-02-02T06:01:00.256Z,101766.25
2023-02-02T06:03:27.631Z,101758.38
2023-02-02T06:05:54.686Z,101768.13
2023-02-02T06:08:21.771Z,101764.63
2023-02-02T06:10:49.394Z,101759.38
2023-02-02T06:13:16.287Z,101759.41
2023-02-02T06:15:43.448Z,101758.59
2023-02-02T06:18:11.052Z,101763.94
2023-02-02T06:20:38.787Z,101757.78
2023-02-02T06:23:06.854Z,101765.72
2023-02-02T06:25:34.544Z,101762.25
2023-02-02T06:28:01.721Z,101751.69
2023-02-02T06:30:29.040Z,101756.06
2023-02-02T06:32:56.092Z,101753.38
2023-02-02T06:35:23.368Z,101744.53
2023-02-02T06:37:50.483Z,101746.28
2023-02-02T06:40:20.881Z,101741.81
2023-02-02T06:42:47.842Z,101742.69
2023-02-02T06:45:15.086Z,101742.59
2023-02-02T06:47:42.664Z,101747.03
2023-02-02T06:50:10.642Z,101751.41
2023-02-02T06:52:37.575Z,101744.31
2023-02-02T06:55:05.119Z,101736.38
2023-02-02T06:57:32.352Z,101737.31
2023-02-02T06:59:59.701Z,101734.59
2023-02-02T07:02:26.996Z,101727.53
2023-02-02T07:04:54.136Z,101732.78
2023-02-02T07:07:21.218Z,101745.13
2023-02-02T07:09:48.160Z,101750.28
2023-02-02T07:12:27.558Z,101749.47
2023-02-02T07:14:54.684Z,101752.06
2023-02-02T07:17:23.745Z,101767.91
2023-02-02T07:19:51.152Z,101773.13
2023-02-02T07:22:18.409Z,101770.44
2023-02-02T07:24:45.295Z,101771.25
2023-02-02T07:27:12.347Z,101781.72
2023-02-02T07:29:39.439Z,101780.97
2023-02-02T07:32:06.557Z,101773.91
2023-02-02T07:34:33.885Z,101775.63
2023-02-02T07:37:00.944Z,101774.66
2023-02-02T07:39:27.863Z,101766.72
2023-02-02T07:41:55.157Z,101766.72
2023-02-02T07:44:30.908Z,101771.09
2023-02-02T07:46:58.417Z,101775.47
2023-02-02T07:49:25.717Z,101772.72
2023-02-02T07:51:53.394Z,101778.81
2023-02-02T07:54:21.519Z,101785.03
2023-02-02T07:56:48.833Z,101792.91
2023-02-02T07:59:16.480Z,101793.63
2023-02-02T08:01:43.684Z,101794.50
2023-02-02T08:04:10.734Z,101798.78
2023-02-02T08:06:40.019Z,101802.28
2023-02-02T08:09:09.235Z,101803.91
2023-02-02T08:11:39.964Z,101807.38
2023-02-02T08:14:07.961Z,101794.91
2023-02-02T08:16:36.155Z,101803.69
2023-02-02T08:19:03.703Z,101806.25
2023-02-02T08:21:34.882Z,101811.44
2023-02-02T08:24:03.250Z,101802.50
2023-02-02T08:26:32.097Z,101803.25
2023-02-02T08:29:03.694Z,101798.69
2023-02-02T08:31:38.027Z,101807.28
2023-02-02T08:34:06.138Z,101808.09
2023-02-02T08:36:35.589Z,101803.59
2023-02-02T08:39:07.492Z,101810.47
2023-02-02T08:41:35.066Z,101814.00
2023-02-02T08:44:05.248Z,101813.63
2023-02-02T08:46:33.134Z,101816.22
2023-02-02T08:49:00.252Z,101811.56
2023-02-02T08:51:27.743Z,101810.56
2023-02-02T08:53:55.119Z,101806.91
2023-02-02T08:56:23.641Z,101808.44
2023-02-02T08:58:56.236Z,101810.09
2023-02-02T09:01:27.090Z,101809.09
2023-02-02T09:04:00.327Z,101813.31
2023-02-02T09:06:39.303Z,101807.16
2023-02-02T09:09:11.156Z,101805.94
2023-02-02T09:11:40.727Z,101816.31
2023-02-02T09:14:09.249Z,101813.44
2023-02-02T09:16:36.681Z,101810.56
2023-02-02T09:19:05.239Z,101805.03
2023-02-02T09:21:36.977Z,101802.13
2023-02-02T09:24:09.941Z,101807.22
2023-02-02T09:26:38.794Z,101815.09
2023-02-02T09:29:08.489Z,101814.72
2023-02-02T09:31:37.639Z,101820.66
2023-02-02T09:34:08.767Z,101819.41
2023-02-02T09:36:38.035Z,101816.53
2023-02-02T09:39:06.511Z,101819.81
2023-02-02T09:41:39.795Z,101812.47
2023-02-02T09:44:30.230Z,101819.25
2023-02-02T09:47:17.647Z,101815.22
2023-02-02T09:50:25.942Z,101814.03
2023-02-02T09:53:05.954Z,101811.78
2023-02-02T09:55:38.924Z,101822.25
2023-02-02T09:58:30.385Z,101826.34
2023-02-02T10:01:15.824Z,101833.19
2023-02-02T10:04:13.647Z,101835.59
2023-02-02T10:06:45.097Z,101832.72
2023-02-02T10:09:40.544Z,101837.66
2023-02-02T10:12:40.911Z,101837.28
2023-02-02T10:15:24.391Z,101835.16
2023-02-02T10:18:00.805Z,101834.13
2023-02-02T10:21:28.844Z,101845.41
2023-02-02T10:23:58.442Z,101838.00
2023-02-02T10:26:46.122Z,101832.44
2023-02-02T10:29:28.070Z,101833.00
2023-02-02T10:32:22.640Z,101836.38
2023-02-02T10:35:25.233Z,101830.00
2023-02-02T10:38:42.724Z,101827.97
2023-02-02T10:41:32.341Z,101818.13
2023-02-02T10:44:18.055Z,101826.56
2023-02-02T10:46:54.054Z,101815.66
2023-02-02T10:49:33.806Z,101817.41
2023-02-02T10:52:17.645Z,101812.47
2023-02-02T10:58:12.259Z,101806.59
2023-02-02T11:00:48.616Z,101806.41
2023-02-02T11:03:20.204Z,101804.31
2023-02-02T11:06:06.010Z,101799.41
2023-02-02T11:08:45.463Z,101791.09
2023-02-02T11:11:33.273Z,101799.72
2023-02-02T11:14:09.449Z,101785.88
2023-02-02T11:16:45.195Z,101782.00
2023-02-02T11:19:18.082Z,101782.47
2023-02-02T11:21:54.930Z,101783.00
2023-02-02T11:24:28.482Z,101780.06
2023-02-02T11:27:07.399Z,101765.50
2023-02-02T11:29:40.513Z,101764.16
2023-02-02T11:32:27.466Z,101757.41
2023-02-02T11:35:17.839Z,101755.41
2023-02-02T11:38:13.869Z,101752.34
2023-02-02T11:40:53.053Z,101740.59
2023-02-02T11:43:33.452Z,101739.06
2023-02-02T11:46:08.152Z,101736.91
2023-02-02T11:48:39.374Z,101729.44
2023-02-02T11:51:08.385Z,101737.06
2023-02-02T11:53:41.494Z,101725.06
2023-02-02T11:56:29.411Z,101720.19
2023-02-02T11:59:03.789Z,101718.22
2023-02-02T12:01:39.857Z,101718.63
2023-02-02T12:04:25.857Z,101707.63
2023-02-02T12:06:52.983Z,101711.53
2023-02-02T12:09:24.069Z,101706.88
2023-02-02T12:12:03.513Z,101702.31
2023-02-02T12:14:45.962Z,101692.94
2023-02-02T12:17:41.829Z,101681.00
2023-02-02T12:20:29.768Z,101681.75
2023-02-02T12:23:14.740Z,101676.94
2023-02-02T12:26:00.569Z,101674.66
2023-02-02T12:28:58.688Z,101673.50
2023-02-02T12:31:48.942Z,101673.81
2023-02-02T12:35:00.703Z,101664.50
2023-02-02T12:38:06.232Z,101668.13
2023-02-02T12:40:55.823Z,101667.63
2023-02-02T12:43:46.429Z,101660.38
2023-02-02T12:46:22.569Z,101662.75
2023-02-02T12:48:58.462Z,101664.31
2023-02-02T12:52:09.961Z,101656.69
2023-02-02T12:55:02.560Z,101656.47
2023-02-02T12:57:59.704Z,101665.19
2023-02-02T13:00:42.755Z,101660.38
2023-02-02T13:03:28.253Z,101645.75
2023-02-02T13:06:21.468Z,101650.31
2023-02-02T13:08:57.970Z,101656.38
2023-02-02T13:11:44.861Z,101649.81
2023-02-02T13:14:17.022Z,101640.91
2023-02-02T13:16:50.543Z,101644.00
2023-02-02T13:19:33.382Z,101638.56
2023-02-02T13:22:04.970Z,101649.13
2023-02-02T13:24:37.371Z,101642.47
2023-02-02T13:27:07.628Z,101652.16
2023-02-02T13:29:48.212Z,101656.41
2023-02-02T13:32:29.297Z,101651.22
2023-02-02T13:35:18.669Z,101652.69
2023-02-02T13:37:59.176Z,101651.56
2023-02-02T13:40:43.935Z,101654.75
2023-02-02T13:43:20.061Z,101647.66
2023-02-02T13:46:12.319Z,101649.09
2023-02-02T13:49:13.407Z,101647.31
2023-02-02T13:52:15.025Z,101654.47
2023-02-02T13:55:08.756Z,101645.25
2023-02-02T13:57:58.597Z,101630.84
2023-02-02T14:00:33.616Z,101633.63
2023-02-02T14:03:06.231Z,101632.78
2023-02-02T14:05:41.593Z,101634.31
2023-02-02T14:08:21.840Z,101635.09
2023-02-02T14:10:51.852Z,101616.13
2023-02-02T14:13:44.488Z,101620.72
2023-02-02T14:16:33.037Z,101620.72
2023-02-02T14:19:12.878Z,101625.56
2023-02-02T14:21:39.786Z,101614.66
2023-02-02T14:24:26.223Z,101612.59
2023-02-02T14:26:59.723Z,101607.97
2023-02-02T14:29:31.486Z,101597.66
2023-02-02T14:32:02.798Z,101597.84
2023-02-02T14:34:34.521Z,101597.84
2023-02-02T14:37:29.876Z,101603.94
2023-02-02T14:40:12.930Z,101605.03
2023-02-02T14:43:39.471Z,101600.41
2023-02-02T14:46:15.901Z,101599.91
2023-02-02T14:49:03.062Z,101606.59
2023-02-02T14:51:33.421Z,101616.03
2023-02-02T14:54:06.996Z,101616.13
2023-02-02T14:56:52.354Z,101624.44
2023-02-02T14:59:28.956Z,101621.94
2023-02-02T15:02:15.752Z,101630.09
2023-02-02T15:04:47.941Z,101630.41
2023-02-02T15:07:52.127Z,101638.75
2023-02-02T15:11:01.170Z,101633.91
2023-02-02T15:13:37.653Z,101639.59
2023-02-02T15:16:18.972Z,101634.75
2023-02-02T15:18:58.233Z,101638.56
2023-02-02T15:21:28.107Z,101630.69
2023-02-02T15:23:57.213Z,101635.53
2023-02-02T15:26:37.902Z,101643.84
2023-02-02T15:29:19.710Z,101648.78
2023-02-02T15:31:53.565Z,101663.22
2023-02-02T15:34:39.077Z,101654.91
2023-02-02T15:37:10.746Z,101661.19
2023-02-02T15:39:43.459Z,101660.50
2023-02-02T15:42:37.949Z,101668.72
2023-02-02T15:45:05.799Z,101664.56
2023-02-02T15:47:40.612Z,101665.59
2023-02-02T15:50:20.573Z,101664.00
2023-02-02T15:52:50.709Z,101668.81
2023-02-02T15:55:33.668Z,101668.06
2023-02-02T15:58:02.939Z,101675.47
2023-02-02T16:00:35.237Z,101673.81
2023-02-02T16:03:15.340Z,101679.31
2023-02-02T16:05:48.142Z,101677.75
2023-02-02T16:08:26.189Z,101686.06
2023-02-02T16:11:05.386Z,101687.19
2023-02-02T16:13:33.649Z,101692.88
2023-02-02T16:16:20.128Z,101693.03
2023-02-02T16:18:47.734Z,101694.13
2023-02-02T16:21:24.161Z,101693.44
2023-02-02T16:23:55.976Z,101690.09
2023-02-02T16:26:29.069Z,101691.16
2023-02-02T16:28:57.111Z,101697.72
2023-02-02T16:31:25.825Z,101699.09
2023-02-02T16:33:52.916Z,101702.78
2023-02-02T16:36:26.233Z,101708.28
2023-02-02T16:38:55.318Z,101715.66
2023-02-02T16:41:35.011Z,101721.25
2023-02-02T16:44:36.328Z,101724.94
2023-02-02T16:47:07.339Z,101724.38
2023-02-02T16:49:35.292Z,101721.94
2023-02-02T16:52:21.849Z,101730.13
2023-02-02T16:54:55.569Z,101720.69
2023-02-02T16:57:34.370Z,101735.25
2023-02-02T17:00:09.310Z,101731.78
2023-02-02T17:02:41.036Z,101730.25
2023-02-02T17:05:21.768Z,101727.66
2023-02-02T17:08:05.656Z,101729.69
2023-02-02T17:10:43.793Z,101736.13
2023-02-02T17:13:36.658Z,101743.09
2023-02-02T17:16:04.308Z,101733.44
2023-02-02T17:18:31.646Z,101740.53
2023-02-02T17:21:07.357Z,101735.25
2023-02-02T17:23:36.933Z,101737.03
2023-02-02T17:26:07.590Z,101740.66
2023-02-02T17:28:38.201Z,101745.34
2023-02-02T17:31:11.960Z,101746.38
2023-02-02T17:33:39.898Z,101747.28
2023-02-02T17:36:07.620Z,101754.47
2023-02-02T17:38:34.719Z,101757.06
2023-02-02T17:41:03.458Z,101761.47
2023-02-02T17:43:32.701Z,101769.72
2023-02-02T17:46:00.273Z,101768.91
2023-02-02T17:48:27.776Z,101771.50
2023-02-02T17:50:55.136Z,101776.00
2023-02-02T17:53:22.967Z,101783.28
2023-02-02T17:55:51.426Z,101778.88
2023-02-02T17:58:19.095Z,101775.50
2023-02-02T18:00:53.529Z,101787.19
2023-02-02T18:03:26.325Z,101786.59
2023-02-02T18:05:53.877Z,101778.56
2023-02-02T18:08:20.925Z,101773.22
2023-02-02T18:10:47.912Z,101787.50
2023-02-02T18:13:17.360Z,101792.13
2023-02-02T18:15:44.423Z,101791.44
2023-02-02T18:18:12.578Z,101795.25
2023-02-02T18:20:47.090Z,101801.47
2023-02-02T18:23:15.811Z,101798.88
2023-02-02T18:25:43.718Z,101798.00
2023-02-02T18:28:11.110Z,101799.00
2023-02-02T18:30:40.393Z,101799.25
2023-02-02T18:33:11.809Z,101792.19
2023-02-02T18:35:47.419Z,101795.78
2023-02-02T18:38:14.880Z,101794.91
2023-02-02T18:40:42.086Z,101804.88
2023-02-02T18:43:09.517Z,101792.63
2023-02-02T18:45:36.833Z,101789.94
2023-02-02T18:48:04.433Z,101795.28
2023-02-02T18:50:31.425Z,101790.97
2023-02-02T18:52:58.764Z,101803.53
2023-02-02T18:55:26.949Z,101800.03
2023-02-02T18:57:54.293Z,101809.00
2023-02-02T19:00:22.143Z,101813.47
2023-02-02T19:02:49.448Z,101815.34
2023-02-02T19:05:35.641Z,101820.75
2023-02-02T19:08:04.123Z,101819.03
2023-02-02T19:10:31.644Z,101819.06
2023-02-02T19:13:19.193Z,101828.16
2023-02-02T19:15:49.726Z,101821.25
2023-02-02T19:18:23.377Z,101820.53
2023-02-02T19:20:52.531Z,101825.16
2023-02-02T19:23:23.565Z,101829.75
2023-02-02T19:25:54.247Z,101832.63
2023-02-02T19:28:31.470Z,101827.41
2023-02-02T19:31:01.858Z,101819.59
2023-02-02T19:33:39.961Z,101830.44
2023-02-02T19:36:21.362Z,101831.50
2023-02-02T19:38:52.888Z,101826.34
2023-02-02T19:41:24.064Z,101822.00
2023-02-02T19:44:11.617Z,101828.38
2023-02-02T19:46:44.509Z,101837.44
2023-02-02T19:49:16.945Z,101846.50
2023-02-02T19:51:53.729Z,101842.16
2023-02-02T19:54:32.841Z,101860.78
2023-02-02T19:57:13.408Z,101861.03
2023-02-02T19:59:43.247Z,101866.63
2023-02-02T20:02:44.019Z,101869.53
2023-02-02T20:05:10.953Z,101864.38
2023-02-02T20:07:41.490Z,101868.09
2023-02-02T20:10:21.483Z,101868.13
2023-02-02T20:12:50.072Z,101883.25
2023-02-02T20:15:36.701Z,101886.88
2023-02-02T20:18:18.962Z,101888.72
2023-02-02T20:20:58.449Z,101889.81
2023-02-02T20:23:45.837Z,101886.38
2023-02-02T20:26:36.688Z,101884.06
2023-02-02T20:29:39.048Z,101871.06
2023-02-02T20:32:19.430Z,101878.50
2023-02-02T20:34:46.751Z,101885.00
2023-02-02T20:37:13.681Z,101889.50
2023-02-02T20:39:42.102Z,101882.50
2023-02-02T20:42:09.044Z,101880.81
2023-02-02T20:44:36.311Z,101884.44
2023-02-02T20:47:03.646Z,101890.72
2023-02-02T20:49:31.836Z,101892.56
2023-02-02T20:52:02.229Z,101893.47
2023-02-02T20:54:29.798Z,101905.97
2023-02-02T20:56:56.726Z,101899.72
2023-02-02T20:59:23.974Z,101909.50
2023-02-02T21:01:51.272Z,101909.47
2023-02-02T21:04:19.256Z,101914.72
2023-02-02T21:06:48.123Z,101910.25
2023-02-02T21:09:16.712Z,101907.50
2023-02-02T21:11:43.929Z,101910.13
2023-02-02T21:14:10.987Z,101923.41
2023-02-02T21:16:38.068Z,101917.16
2023-02-02T21:19:05.853Z,101927.00
2023-02-02T21:21:32.931Z,101936.03
2023-02-02T21:24:00.891Z,101933.47
2023-02-02T21:26:30.551Z,101940.78
2023-02-02T21:28:58.876Z,101938.31
2023-02-02T21:31:26.734Z,101943.75
2023-02-02T21:33:54.116Z,101943.84
2023-02-02T21:36:34.650Z,101949.34
2023-02-02T21:39:33.429Z,101941.47
2023-02-02T21:42:09.267Z,101935.47
2023-02-02T21:44:52.522Z,101936.50
2023-02-02T21:47:33.278Z,101935.06
2023-02-02T21:50:28.088Z,101932.59
2023-02-02T21:53:18.163Z,101939.97
2023-02-02T21:55:59.879Z,101945.41
2023-02-02T21:58:35.040Z,101953.81
2023-02-02T22:01:24.200Z,101956.81
2023-02-02T22:03:51.585Z,101942.84
2023-02-02T22:06:42.255Z,101943.94
2023-02-02T22:09:12.126Z,101947.66
2023-02-02T22:11:47.269Z,101946.84
2023-02-02T22:14:19.025Z,101944.44
2023-02-02T22:16:50.317Z,101947.25
2023-02-02T22:19:38.735Z,101963.34
2023-02-02T22:22:08.592Z,101958.97
2023-02-02T22:24:36.804Z,101959.97
2023-02-02T22:27:03.830Z,101961.06
2023-02-02T22:29:35.356Z,101960.28
2023-02-02T22:32:02.409Z,101961.28
2023-02-02T22:34:29.447Z,101964.03
2023-02-02T22:36:56.387Z,101963.25
2023-02-02T22:39:23.311Z,101974.75
2023-02-02T22:41:50.294Z,101976.59
2023-02-02T22:44:17.165Z,101988.25
2023-02-02T22:46:44.189Z,101985.66
2023-02-02T22:49:11.242Z,101988.41
2023-02-02T22:51:38.184Z,101998.22
2023-02-02T22:54:05.305Z,101987.63
2023-02-02T22:56:32.316Z,102002.78
2023-02-02T22:59:01.409Z,102009.06
2023-02-02T23:01:28.520Z,102007.38
2023-02-02T23:03:55.927Z,102007.50
2023-02-02T23:06:23.087Z,102006.63
2023-02-02T23:08:50.359Z,102005.81
2023-02-02T23:11:17.378Z,102012.88
2023-02-02T23:13:44.287Z,102012.13
2023-02-02T23:16:11.353Z,102013.94
2023-02-02T23:18:38.378Z,102013.88
2023-02-02T23:21:05.706Z,102016.50
2023-02-02T23:23:32.648Z,102013.72
2023-02-02T23:25:59.541Z,102009.16
2023-02-02T23:28:26.433Z,102025.06
2023-02-02T23:31:12.217Z,102013.44
2023-02-02T23:33:39.356Z,102016.03
2023-02-02T23:36:06.978Z,102015.03
2023-02-02T23:38:33.948Z,102023.00
2023-02-02T23:41:00.874Z,102019.41
2023-02-02T23:43:28.412Z,102008.63
2023-02-02T23:45:55.463Z,102019.19
2023-02-02T23:48:22.517Z,102023.59
2023-02-02T23:50:49.475Z,102021.00
2023-02-02T23:53:17.215Z,102030.00
2023-02-02T23:55:48.120Z,102030.19
2023-02-02T23:58:15.983Z,102028.53
